Time;durP1;ratioP1;P1;durP2;ratioP2;P2;SDS_P1;SDS_P2;PMS_P1;PMS_P2;Temp;Humidity;BMP_temperature;BMP_pressure;BME280_temperature;BME280_humidity;BME280_pressure;Samples;Min_cycle;Max_cycle;Signal;HPM_P1;HPM_P2
2023/07/28 00:00:27;;;;;;;9.93;8.80;;;17.50;99.90;;;;;;5018335;28;20171;-96
2023/07/28 00:02:53;;;;;;;9.77;8.85;;;17.50;99.90;;;;;;5016939;28;20171;-96
2023/07/28 00:05:37;;;;;;;10.43;9.32;;;17.50;99.90;;;;;;5018297;28;20203;-96
2023/07/28 00:08:12;;;;;;;10.30;9.00;;;17.50;99.90;;;;;;5020235;28;20266;-96
2023/07/28 00:10:44;;;;;;;12.55;9.20;;;17.50;99.90;;;;;;5018909;28;20167;-95
2023/07/28 00:13:16;;;;;;;9.50;8.55;;;17.50;99.90;;;;;;5017863;28;20175;-95
2023/07/28 00:15:43;;;;;;;9.80;8.85;;;17.50;99.90;;;;;;5018801;28;20218;-96
2023/07/28 00:18:12;;;;;;;12.07;8.93;;;17.50;99.90;;;;;;5020569;28;20627;-96
2023/07/28 00:20:41;;;;;;;9.15;8.27;;;17.50;99.90;;;;;;5019319;28;20245;-95
2023/07/28 00:23:17;;;;;;;11.13;7.72;;;17.50;99.90;;;;;;5019067;28;20757;-95
2023/07/28 00:25:43;;;;;;;9.57;8.13;;;17.50;99.90;;;;;;5395403;22;20232;-86
2023/07/28 00:28:11;;;;;;;8.23;7.53;;;17.50;99.90;;;;;;5035918;28;20708;-87
2023/07/28 00:30:36;;;;;;;9.90;7.22;;;17.50;99.90;;;;;;5038788;28;20205;-88
2023/07/28 00:33:02;;;;;;;10.38;7.20;;;17.50;99.90;;;;;;5061257;28;20258;-86
2023/07/28 00:35:27;;;;;;;7.22;6.53;;;17.50;99.90;;;;;;5061769;28;20255;-87
2023/07/28 00:37:53;;;;;;;12.00;7.20;;;17.50;99.90;;;;;;5046613;28;20576;-87
2023/07/28 00:40:19;;;;;;;7.25;6.55;;;17.50;99.90;;;;;;5043451;28;20182;-86
2023/07/28 00:42:45;;;;;;;9.23;6.25;;;17.50;99.90;;;;;;5057515;28;20272;-86
2023/07/28 00:45:11;;;;;;;8.30;6.32;;;17.50;99.90;;;;;;5037910;28;20209;-86
2023/07/28 00:47:37;;;;;;;10.63;6.10;;;17.50;99.90;;;;;;5036330;28;20583;-86
2023/07/28 00:50:04;;;;;;;9.60;6.05;;;17.50;99.90;;;;;;5036140;28;20596;-85
2023/07/28 00:52:29;;;;;;;7.97;6.03;;;17.50;99.90;;;;;;5035991;28;20527;-86
2023/07/28 00:54:55;;;;;;;7.32;5.45;;;17.50;99.90;;;;;;5035795;28;20198;-87
2023/07/28 00:57:21;;;;;;;8.85;5.68;;;17.50;99.90;;;;;;5049189;28;20189;-86
2023/07/28 00:59:46;;;;;;;7.93;5.47;;;17.50;99.90;;;;;;5055712;28;20173;-87
2023/07/28 01:02:12;;;;;;;8.05;5.50;;;17.50;99.90;;;;;;5055890;28;20177;-86
2023/07/28 01:04:38;;;;;;;6.07;5.25;;;17.50;99.90;;;;;;5055811;28;20666;-87
2023/07/28 01:07:06;;;;;;;8.50;5.20;;;17.50;99.90;;;;;;5074163;28;20173;-87
2023/07/28 01:10:00;;;;;;;7.30;5.22;;;17.50;99.90;;;;;;5055852;28;20177;-87
2023/07/28 01:12:26;;;;;;;6.93;5.43;;;17.50;99.90;;;;;;5055956;28;20619;-87
2023/07/28 01:14:52;;;;;;;6.55;5.85;;;17.50;99.90;;;;;;5055756;28;20188;-86
2023/07/28 01:17:19;;;;;;;6.88;5.38;;;17.40;99.90;;;;;;5055967;28;20276;-87
2023/07/28 01:19:45;;;;;;;6.82;5.25;;;17.40;99.90;;;;;;5055747;28;20192;-86
2023/07/28 01:22:41;;;;;;;10.50;6.00;;;17.50;99.90;;;;;;5055718;28;20177;-86
2023/07/28 01:25:21;;;;;;;6.50;5.10;;;17.50;99.90;;;;;;5055691;28;20173;-86
2023/07/28 01:27:48;;;;;;;9.20;5.85;;;17.50;99.90;;;;;;5020976;28;20249;-85
2023/07/28 01:30:14;;;;;;;7.20;5.50;;;17.50;99.90;;;;;;5016537;28;20199;-85
2023/07/28 01:32:40;;;;;;;7.30;6.55;;;17.50;99.90;;;;;;5016158;28;20689;-84
2023/07/28 01:35:06;;;;;;;10.85;6.10;;;17.40;99.90;;;;;;5016285;28;20353;-84
2023/07/28 01:37:32;;;;;;;6.53;5.90;;;17.40;99.90;;;;;;5015842;28;20523;-84
2023/07/28 01:39:57;;;;;;;8.38;6.00;;;17.40;99.90;;;;;;5016020;28;20186;-85
2023/07/28 01:42:23;;;;;;;7.15;6.22;;;17.40;99.90;;;;;;5015975;28;20179;-84
2023/07/28 01:44:50;;;;;;;8.10;6.13;;;17.40;99.90;;;;;;5016214;28;20187;-86
2023/07/28 01:47:16;;;;;;;6.68;6.03;;;17.40;99.90;;;;;;5016096;28;20214;-85
2023/07/28 01:49:41;;;;;;;9.55;6.00;;;17.40;99.90;;;;;;5015861;28;20179;-85
2023/07/28 01:52:07;;;;;;;6.75;6.00;;;17.40;99.90;;;;;;5016064;28;20175;-85
2023/07/28 01:54:33;;;;;;;7.25;6.55;;;17.40;99.90;;;;;;5017208;28;20653;-86
2023/07/28 01:56:58;;;;;;;9.80;6.50;;;17.40;99.90;;;;;;5015972;28;20222;-85
2023/07/28 01:59:25;;;;;;;7.05;6.05;;;17.40;99.90;;;;;;5016028;28;20195;-85
2023/07/28 02:01:51;;;;;;;7.18;6.07;;;17.40;99.90;;;;;;5015790;28;20179;-84
2023/07/28 02:04:19;;;;;;;7.80;6.00;;;17.40;99.90;;;;;;5014963;28;20187;-85
2023/07/28 02:06:45;;;;;;;6.75;6.10;;;17.40;99.90;;;;;;5017161;28;20266;-86
2023/07/28 02:09:10;;;;;;;6.47;5.85;;;17.50;99.90;;;;;;5015584;28;20557;-86
2023/07/28 02:11:36;;;;;;;5.78;5.18;;;17.50;99.90;;;;;;5015521;28;20629;-84
2023/07/28 02:14:01;;;;;;;7.50;5.38;;;17.50;99.90;;;;;;5016886;28;20516;-87
2023/07/28 02:16:27;;;;;;;9.32;5.60;;;17.50;99.90;;;;;;5017923;28;20226;-86
2023/07/28 02:18:55;;;;;;;9.00;6.18;;;17.40;99.90;;;;;;5016741;28;20186;-90
2023/07/28 02:21:20;;;;;;;7.38;5.43;;;17.40;99.90;;;;;;5017411;28;20485;-86
2023/07/28 02:23:46;;;;;;;6.10;5.57;;;17.40;99.90;;;;;;5017586;28;20183;-90
2023/07/28 02:26:12;;;;;;;6.70;5.40;;;17.40;99.90;;;;;;5022677;28;20230;-89
2023/07/28 02:28:37;;;;;;;6.38;5.03;;;17.40;99.90;;;;;;5036816;28;20178;-93
2023/07/28 02:31:03;;;;;;;10.07;5.10;;;17.40;99.90;;;;;;5036100;28;20616;-87
2023/07/28 02:33:35;;;;;;;6.30;5.15;;;17.40;99.90;;;;;;5036817;28;20174;-87
2023/07/28 02:36:01;;;;;;;5.65;4.65;;;17.40;99.90;;;;;;5035118;28;20213;-86
2023/07/28 02:38:27;;;;;;;6.05;4.97;;;17.50;99.90;;;;;;5033904;28;20178;-86
2023/07/28 02:40:53;;;;;;;5.10;4.45;;;17.40;99.90;;;;;;5035131;28;20182;-87
2023/07/28 02:43:18;;;;;;;4.88;4.10;;;17.40;99.90;;;;;;5036059;28;20173;-85
2023/07/28 02:45:48;;;;;;;7.68;4.90;;;17.50;99.90;;;;;;5035290;28;20265;-86
2023/07/28 02:48:15;;;;;;;9.82;4.70;;;17.40;99.90;;;;;;5035376;28;20182;-88
2023/07/28 02:50:46;;;;;;;8.60;4.75;;;17.40;99.90;;;;;;5035995;28;20171;-87
2023/07/28 02:53:11;;;;;;;5.90;4.30;;;17.40;99.90;;;;;;5035075;28;20178;-87
2023/07/28 02:55:44;;;;;;;5.97;4.25;;;17.40;99.90;;;;;;5034821;28;20198;-85
2023/07/28 02:58:11;;;;;;;4.85;4.43;;;17.40;99.90;;;;;;5034606;28;20261;-87
2023/07/28 03:00:41;;;;;;;6.75;4.55;;;17.40;99.90;;;;;;5034874;28;20185;-88
2023/07/28 03:03:10;;;;;;;7.57;4.43;;;17.40;99.90;;;;;;5036053;28;20166;-86
2023/07/28 03:05:40;;;;;;;8.05;4.20;;;17.40;99.90;;;;;;5034763;28;20269;-86
2023/07/28 03:08:06;;;;;;;7.25;4.90;;;17.40;99.90;;;;;;5035967;28;20206;-95
2023/07/28 03:10:33;;;;;;;7.40;5.00;;;17.40;99.90;;;;;;5034895;28;20182;-91
2023/07/28 03:12:59;;;;;;;6.40;4.88;;;17.40;99.90;;;;;;5034418;28;20627;-87
2023/07/28 03:15:25;;;;;;;4.80;4.40;;;17.40;99.90;;;;;;5034621;28;20210;-87
2023/07/28 03:17:51;;;;;;;7.70;5.07;;;17.40;99.90;;;;;;5035935;28;20174;-89
2023/07/28 03:20:17;;;;;;;5.47;4.97;;;17.40;99.90;;;;;;5035704;28;20189;-86
2023/07/28 03:22:43;;;;;;;10.85;5.50;;;17.40;99.90;;;;;;5035801;28;20171;-84
2023/07/28 03:25:09;;;;;;;8.88;4.50;;;17.40;99.90;;;;;;5034318;28;20518;-85
2023/07/28 03:27:35;;;;;;;5.15;4.57;;;17.40;99.90;;;;;;5017784;28;20274;-86
2023/07/28 03:30:01;;;;;;;4.93;4.40;;;17.40;99.90;;;;;;5015992;28;20674;-86
2023/07/28 03:32:26;;;;;;;5.72;5.00;;;17.40;99.90;;;;;;5015776;28;20167;-84
2023/07/28 03:34:52;;;;;;;4.95;4.45;;;17.40;99.90;;;;;;5015403;28;20175;-85
2023/07/28 03:37:19;;;;;;;4.78;4.15;;;17.40;99.90;;;;;;5014256;28;20191;-86
2023/07/28 03:39:44;;;;;;;6.82;4.30;;;17.40;99.90;;;;;;5015202;28;20574;-83
2023/07/28 03:42:10;;;;;;;5.07;4.30;;;17.40;99.90;;;;;;5014025;28;20207;-84
2023/07/28 03:44:37;;;;;;;4.50;4.00;;;17.40;99.90;;;;;;5014461;28;20179;-86
2023/07/28 03:47:03;;;;;;;7.38;3.90;;;17.40;99.90;;;;;;5014226;28;20178;-83
2023/07/28 03:49:29;;;;;;;4.07;3.70;;;17.40;99.90;;;;;;5015051;28;20187;-84
2023/07/28 03:51:55;;;;;;;5.50;3.80;;;17.40;99.90;;;;;;5015320;28;20633;-85
2023/07/28 03:54:23;;;;;;;3.92;3.40;;;17.30;99.90;;;;;;5014960;28;20198;-87
2023/07/28 03:56:48;;;;;;;6.22;3.33;;;17.40;99.90;;;;;;5013706;28;20545;-86
2023/07/28 03:59:14;;;;;;;3.40;3.10;;;17.40;99.90;;;;;;5013853;28;20190;-88
2023/07/28 04:01:40;;;;;;;5.40;3.30;;;17.40;99.90;;;;;;5013938;28;20190;-86
2023/07/28 04:04:05;;;;;;;3.58;2.90;;;17.40;99.90;;;;;;5015410;28;20261;-86
2023/07/28 04:06:43;;;;;;;3.60;2.83;;;17.40;99.90;;;;;;5015227;28;20490;-86
2023/07/28 04:09:11;;;;;;;7.75;3.05;;;17.40;99.90;;;;;;5013919;28;20651;-87
2023/07/28 04:11:37;;;;;;;6.75;3.20;;;17.40;99.90;;;;;;5013869;28;20236;-87
2023/07/28 04:14:03;;;;;;;6.85;2.60;;;17.50;99.90;;;;;;5014769;28;20669;-87
2023/07/28 04:16:29;;;;;;;7.03;3.25;;;17.50;99.90;;;;;;5013873;28;20211;-87
2023/07/28 04:18:54;;;;;;;4.78;3.05;;;17.50;99.90;;;;;;5013747;28;20179;-86
2023/07/28 04:21:20;;;;;;;4.72;2.70;;;17.50;99.90;;;;;;5013500;28;20515;-86
2023/07/28 04:23:46;;;;;;;4.00;2.50;;;17.40;99.90;;;;;;5013775;28;20183;-87
2023/07/28 04:26:11;;;;;;;4.15;2.65;;;17.40;99.90;;;;;;5013042;28;21081;-86
2023/07/28 04:28:37;;;;;;;3.17;2.42;;;17.40;99.90;;;;;;5014317;28;20163;-86
2023/07/28 04:31:03;;;;;;;5.57;2.45;;;17.50;99.90;;;;;;5013318;28;20278;-86
2023/07/28 04:33:28;;;;;;;4.55;2.55;;;17.40;99.90;;;;;;5013276;28;20254;-87
2023/07/28 04:35:54;;;;;;;3.63;2.63;;;17.40;99.90;;;;;;5014454;28;20235;-86
2023/07/28 04:38:20;;;;;;;2.75;2.33;;;17.40;99.90;;;;;;5013377;28;20222;-88
2023/07/28 04:40:47;;;;;;;4.50;2.38;;;17.40;99.90;;;;;;5013064;28;20198;-88
2023/07/28 04:43:13;;;;;;;3.08;2.38;;;17.40;99.90;;;;;;5014236;28;20167;-86
2023/07/28 04:45:39;;;;;;;4.80;2.63;;;17.50;99.90;;;;;;5013224;28;20229;-86
2023/07/28 04:48:05;;;;;;;2.80;2.20;;;17.40;99.90;;;;;;5013140;28;20629;-86
2023/07/28 04:50:33;;;;;;;4.07;2.25;;;17.40;99.90;;;;;;5013082;28;20207;-87
2023/07/28 04:52:59;;;;;;;2.72;2.30;;;17.50;99.90;;;;;;5013258;28;20186;-87
2023/07/28 04:55:26;;;;;;;2.13;1.92;;;17.40;99.90;;;;;;5013180;28;20306;-87
2023/07/28 04:57:52;;;;;;;4.88;2.25;;;17.50;99.90;;;;;;5012752;28;20199;-87
2023/07/28 05:00:19;;;;;;;4.28;2.17;;;17.50;99.90;;;;;;5012709;28;20656;-86
2023/07/28 05:02:45;;;;;;;5.55;2.20;;;17.50;99.90;;;;;;5014236;28;20167;-86
2023/07/28 05:05:10;;;;;;;2.95;2.08;;;17.50;99.90;;;;;;5012962;28;20182;-87
2023/07/28 05:07:36;;;;;;;2.30;2.10;;;17.50;99.90;;;;;;5014344;28;20175;-85
2023/07/28 05:10:04;;;;;;;3.22;1.98;;;17.50;99.90;;;;;;5014071;28;20645;-88
2023/07/28 05:12:30;;;;;;;2.55;2.00;;;17.50;99.90;;;;;;5012640;28;20179;-86
2023/07/28 05:14:55;;;;;;;2.42;1.90;;;17.50;99.90;;;;;;5012779;28;20183;-86
2023/07/28 05:17:21;;;;;;;2.30;2.10;;;17.60;99.90;;;;;;5012863;28;20268;-88
2023/07/28 05:19:47;;;;;;;2.78;2.05;;;17.60;99.90;;;;;;5012977;28;20229;-87
2023/07/28 05:22:13;;;;;;;2.88;2.03;;;17.60;99.90;;;;;;5013204;28;20614;-86
2023/07/28 05:24:38;;;;;;;2.30;1.95;;;17.50;99.90;;;;;;5013117;28;20207;-87
2023/07/28 05:27:04;;;;;;;3.85;2.08;;;17.50;99.90;;;;;;5012853;28;20231;-88
2023/07/28 05:29:30;;;;;;;5.88;2.00;;;17.60;99.90;;;;;;5013224;28;20187;-86
2023/07/28 05:31:58;;;;;;;2.83;2.20;;;17.60;99.90;;;;;;5012938;28;20191;-86
2023/07/28 05:34:23;;;;;;;3.78;2.10;;;17.50;99.90;;;;;;5013199;28;20176;-87
2023/07/28 05:36:49;;;;;;;3.13;1.98;;;17.50;99.90;;;;;;5012917;28;20217;-87
2023/07/28 05:39:14;;;;;;;5.53;2.38;;;17.50;99.90;;;;;;5013063;28;20217;-87
2023/07/28 05:41:40;;;;;;;5.20;1.95;;;17.50;99.90;;;;;;5012854;28;20183;-86
2023/07/28 05:44:06;;;;;;;4.55;2.05;;;17.50;99.90;;;;;;5012951;28;20175;-87
2023/07/28 05:46:32;;;;;;;2.50;2.25;;;17.60;99.90;;;;;;5012873;28;20175;-85
2023/07/28 05:48:58;;;;;;;4.03;1.95;;;17.60;99.90;;;;;;5014023;28;20179;-85
2023/07/28 05:51:23;;;;;;;3.70;2.30;;;17.70;99.90;;;;;;5012723;28;20262;-87
2023/07/28 05:53:50;;;;;;;2.45;2.25;;;17.70;99.90;;;;;;5012706;28;20191;-87
2023/07/28 05:56:16;;;;;;;3.47;2.17;;;17.70;99.90;;;;;;5012594;28;20223;-87
2023/07/28 05:58:42;;;;;;;4.68;2.17;;;17.80;99.90;;;;;;5012792;28;20637;-88
2023/07/28 06:01:09;;;;;;;3.85;2.00;;;17.80;99.90;;;;;;5012631;28;20179;-88
2023/07/28 06:03:35;;;;;;;5.25;2.00;;;17.90;99.90;;;;;;5012483;28;20171;-87
2023/07/28 06:06:01;;;;;;;2.40;2.08;;;17.90;99.90;;;;;;5013906;28;20637;-85
2023/07/28 06:08:27;;;;;;;2.13;1.80;;;17.90;99.90;;;;;;5013782;28;20225;-85
2023/07/28 06:10:53;;;;;;;2.75;1.95;;;18.00;99.90;;;;;;5012509;28;20183;-87
2023/07/28 06:13:19;;;;;;;2.58;2.28;;;18.00;99.90;;;;;;5015173;28;20215;-86
2023/07/28 06:15:45;;;;;;;3.28;2.05;;;18.00;99.90;;;;;;5017042;28;20195;-85
2023/07/28 06:18:10;;;;;;;3.50;2.00;;;18.10;99.90;;;;;;5016979;28;20518;-86
2023/07/28 06:20:36;;;;;;;5.82;1.80;;;18.10;99.90;;;;;;5016836;28;20241;-87
2023/07/28 06:23:02;;;;;;;5.80;2.22;;;18.10;99.90;;;;;;5015532;28;20254;-88
2023/07/28 06:25:27;;;;;;;1.95;1.70;;;18.10;99.90;;;;;;5015444;28;20183;-86
2023/07/28 06:27:53;;;;;;;2.80;2.10;;;18.10;99.90;;;;;;5015393;28;20322;-86
2023/07/28 06:30:19;;;;;;;3.03;1.95;;;18.10;99.90;;;;;;5015406;28;20927;-87
2023/07/28 06:32:44;;;;;;;2.30;2.10;;;18.00;99.90;;;;;;5015344;28;20690;-86
2023/07/28 06:35:10;;;;;;;2.30;2.08;;;18.00;99.90;;;;;;5015322;28;20234;-86
2023/07/28 06:37:37;;;;;;;4.95;2.30;;;18.00;99.90;;;;;;5014887;28;20637;-85
2023/07/28 06:40:05;;;;;;;2.00;1.90;;;17.90;99.90;;;;;;5016305;28;20186;-85
2023/07/28 06:42:33;;;;;;;5.40;2.08;;;18.00;99.90;;;;;;5016195;28;20618;-86
2023/07/28 06:44:59;;;;;;;6.22;2.10;;;18.00;99.90;;;;;;5015067;28;20184;-86
2023/07/28 06:47:25;;;;;;;6.35;2.40;;;18.10;99.90;;;;;;5016260;28;20618;-85
2023/07/28 06:49:51;;;;;;;4.53;2.40;;;18.10;99.90;;;;;;5014855;28;20183;-86
2023/07/28 06:52:16;;;;;;;3.95;2.25;;;18.10;99.90;;;;;;5016273;28;20175;-86
2023/07/28 06:54:42;;;;;;;6.38;2.65;;;18.10;99.90;;;;;;5014834;28;20179;-88
2023/07/28 06:57:08;;;;;;;2.63;2.40;;;18.10;99.90;;;;;;5014774;28;20661;-87
2023/07/28 06:59:34;;;;;;;2.95;2.20;;;18.20;99.90;;;;;;5014798;28;20213;-85
2023/07/28 07:02:02;;;;;;;3.28;2.58;;;18.20;99.90;;;;;;5016057;28;20175;-86
2023/07/28 07:04:28;;;;;;;5.07;2.55;;;18.20;99.90;;;;;;5016042;28;20164;-86
2023/07/28 07:06:53;;;;;;;3.28;2.45;;;18.20;99.90;;;;;;5014850;28;20182;-88
2023/07/28 07:09:19;;;;;;;5.38;2.80;;;18.20;99.90;;;;;;5015875;28;20191;-86
2023/07/28 07:11:45;;;;;;;4.25;2.50;;;18.30;99.90;;;;;;5014901;28;20653;-86
2023/07/28 07:14:11;;;;;;;6.03;2.90;;;18.30;99.90;;;;;;5015521;28;20175;-86
2023/07/28 07:16:36;;;;;;;4.03;2.30;;;18.30;99.90;;;;;;5014633;28;20310;-85
2023/07/28 07:19:02;;;;;;;6.63;2.55;;;18.40;99.90;;;;;;5014424;28;20564;-86
2023/07/28 07:21:30;;;;;;;6.03;2.65;;;18.40;99.90;;;;;;5014542;28;20602;-88
2023/07/28 07:23:56;;;;;;;3.53;2.35;;;18.50;99.90;;;;;;5014048;28;20703;-86
2023/07/28 07:26:22;;;;;;;3.80;2.50;;;18.50;99.90;;;;;;5014433;28;20310;-86
2023/07/28 07:28:47;;;;;;;3.22;2.55;;;18.50;99.90;;;;;;5014104;28;20180;-86
2023/07/28 07:31:14;;;;;;;2.90;2.20;;;18.50;99.90;;;;;;5015552;28;20190;-86
2023/07/28 07:33:40;;;;;;;3.08;2.22;;;18.60;99.90;;;;;;5014071;28;20186;-84
2023/07/28 07:36:12;;;;;;;2.88;2.22;;;18.70;99.90;;;;;;5014713;28;20211;-86
2023/07/28 07:38:40;;;;;;;2.80;2.50;;;18.80;99.90;;;;;;5014723;28;20196;-88
2023/07/28 07:41:08;;;;;;;3.20;2.25;;;18.90;99.90;;;;;;5015308;28;20262;-88
2023/07/28 07:43:34;;;;;;;6.43;2.50;;;19.00;99.90;;;;;;5013684;28;20175;-87
2023/07/28 07:46:00;;;;;;;2.47;2.05;;;19.00;99.90;;;;;;5014162;28;20201;-87
2023/07/28 07:48:25;;;;;;;4.05;2.40;;;19.10;99.90;;;;;;5013940;28;20202;-86
2023/07/28 07:50:52;;;;;;;2.40;2.20;;;19.20;99.90;;;;;;5013782;28;20179;-87
2023/07/28 07:53:17;;;;;;;4.95;1.95;;;19.30;99.90;;;;;;5013808;28;20172;-87
2023/07/28 07:55:43;;;;;;;1.88;1.77;;;19.40;99.90;;;;;;5013985;28;20649;-87
2023/07/28 07:58:09;;;;;;;3.08;1.98;;;19.40;99.90;;;;;;5013643;28;20183;-87
2023/07/28 08:00:38;;;;;;;3.63;1.98;;;19.40;99.90;;;;;;5014921;28;20241;-86
2023/07/28 08:03:05;;;;;;;3.08;2.08;;;19.30;99.90;;;;;;5013694;28;20214;-85
2023/07/28 08:05:30;;;;;;;6.75;2.00;;;19.40;99.90;;;;;;5013532;28;20168;-86
2023/07/28 08:07:56;;;;;;;2.03;1.63;;;19.40;99.90;;;;;;5013695;28;20201;-84
2023/07/28 08:10:22;;;;;;;2.20;1.80;;;19.30;99.90;;;;;;5013464;28;20534;-86
2023/07/28 08:12:48;;;;;;;2.00;1.63;;;19.40;99.90;;;;;;5014526;28;20206;-85
2023/07/28 08:15:14;;;;;;;2.90;2.00;;;19.30;99.90;;;;;;5013465;28;20211;-86
2023/07/28 08:17:40;;;;;;;1.80;1.70;;;19.40;99.90;;;;;;5014730;28;20183;-85
2023/07/28 08:20:09;;;;;;;5.47;2.10;;;19.40;99.90;;;;;;5014570;28;20175;-87
2023/07/28 08:22:35;;;;;;;2.45;1.95;;;19.50;99.90;;;;;;5014665;28;20203;-85
2023/07/28 08:25:00;;;;;;;10.77;2.33;;;19.60;99.90;;;;;;5013296;28;20249;-84
2023/07/28 08:27:26;;;;;;;2.50;1.83;;;19.60;99.90;;;;;;5043532;28;20276;-86
2023/07/28 08:29:52;;;;;;;6.43;1.98;;;19.60;99.90;;;;;;5036348;28;20251;-85
2023/07/28 08:32:17;;;;;;;5.20;1.98;;;19.60;99.90;;;;;;5036246;28;20185;-85
2023/07/28 08:34:43;;;;;;;2.25;2.08;;;19.50;99.90;;;;;;5036027;28;20173;-85
2023/07/28 08:37:09;;;;;;;3.17;2.10;;;19.50;99.90;;;;;;5035187;28;20555;-85
2023/07/28 08:39:35;;;;;;;3.47;2.30;;;19.40;99.90;;;;;;5060687;28;20177;-84
2023/07/28 08:42:02;;;;;;;6.03;2.13;;;19.50;99.90;;;;;;5073808;28;20577;-85
2023/07/28 08:44:32;;;;;;;9.18;2.47;;;19.30;99.90;;;;;;5055784;28;20169;-86
2023/07/28 08:46:59;;;;;;;3.08;2.50;;;19.30;99.90;;;;;;5056009;28;20195;-84
2023/07/28 08:49:26;;;;;;;3.13;2.50;;;19.30;99.90;;;;;;5055876;28;20185;-84
2023/07/28 08:51:58;;;;;;;9.48;2.78;;;19.40;99.90;;;;;;5055970;28;20191;-85
2023/07/28 08:54:24;;;;;;;3.83;2.60;;;19.50;99.90;;;;;;5055833;28;20173;-85
2023/07/28 08:56:50;;;;;;;2.85;2.65;;;19.60;99.90;;;;;;5055751;28;20536;-84
2023/07/28 08:59:25;;;;;;;3.92;2.58;;;19.70;99.90;;;;;;5055311;28;20515;-85
2023/07/28 09:01:51;;;;;;;19.15;2.90;;;19.70;99.90;;;;;;5073723;28;20176;-85
2023/07/28 09:04:17;;;;;;;14.23;3.33;;;19.80;99.90;;;;;;5055839;28;20204;-86
2023/07/28 09:06:47;;;;;;;4.90;2.60;;;19.90;99.90;;;;;;5055788;28;20217;-84
2023/07/28 09:09:19;;;;;;;5.50;2.60;;;19.90;99.90;;;;;;5069026;28;20178;-85
2023/07/28 09:11:48;;;;;;;2.53;2.33;;;19.90;99.90;;;;;;5053580;28;20170;-85
2023/07/28 09:14:16;;;;;;;4.78;2.65;;;19.90;99.90;;;;;;5053168;28;20287;-84
2023/07/28 09:16:51;;;;;;;2.90;2.60;;;19.80;99.90;;;;;;5053493;28;20247;-85
2023/07/28 09:19:17;;;;;;;3.50;2.40;;;19.70;99.90;;;;;;5052230;28;20510;-84
2023/07/28 09:21:47;;;;;;;3.20;2.45;;;19.70;99.90;;;;;;5035462;28;20207;-85
2023/07/28 09:24:13;;;;;;;8.95;2.95;;;19.50;99.90;;;;;;5052128;28;20189;-85
2023/07/28 09:26:48;;;;;;;3.00;2.50;;;19.50;99.90;;;;;;5035386;28;20730;-84
2023/07/28 09:29:16;;;;;;;4.03;2.78;;;19.40;99.90;;;;;;5035431;28;20173;-84
2023/07/28 09:31:43;;;;;;;3.20;2.95;;;19.50;99.90;;;;;;5053443;28;20623;-86
2023/07/28 09:34:10;;;;;;;6.72;3.25;;;19.60;99.90;;;;;;5035703;28;20228;-86
2023/07/28 09:36:38;;;;;;;5.72;3.30;;;19.60;99.90;;;;;;5035519;28;20205;-86
2023/07/28 09:39:07;;;;;;;4.05;3.25;;;19.70;99.90;;;;;;5035388;28;20177;-85
2023/07/28 09:41:35;;;;;;;3.75;3.35;;;19.80;99.90;;;;;;5035529;28;20592;-87
2023/07/28 09:44:01;;;;;;;4.68;3.28;;;19.80;99.90;;;;;;5034996;28;20180;-85
2023/07/28 09:46:30;;;;;;;3.45;3.13;;;19.90;99.90;;;;;;5053513;28;20174;-86
2023/07/28 09:48:58;;;;;;;4.22;3.70;;;20.10;99.90;;;;;;5057191;28;20166;-86
2023/07/28 09:51:30;;;;;;;3.78;3.47;;;20.20;99.90;;;;;;5039207;28;20182;-86
2023/07/28 09:54:08;;;;;;;3.55;3.25;;;20.50;99.90;;;;;;5039103;28;20823;-85
2023/07/28 09:56:35;;;;;;;4.32;3.10;;;20.60;99.90;;;;;;5039182;28;20236;-83
2023/07/28 09:59:04;;;;;;;3.60;3.30;;;20.70;99.90;;;;;;5038817;28;20225;-85
2023/07/28 10:01:31;;;;;;;3.78;3.40;;;20.90;99.90;;;;;;5039002;28;20190;-84
2023/07/28 10:03:58;;;;;;;5.03;3.42;;;20.90;99.90;;;;;;5038789;28;20177;-86
2023/07/28 10:06:23;;;;;;;5.85;3.40;;;20.90;99.90;;;;;;5056958;28;20174;-86
2023/07/28 10:08:49;;;;;;;4.50;3.15;;;20.90;99.90;;;;;;5038977;28;20628;-86
2023/07/28 10:11:17;;;;;;;4.85;2.90;;;20.90;99.90;;;;;;5038766;28;20189;-85
2023/07/28 10:13:44;;;;;;;3.28;2.90;;;20.90;99.90;;;;;;5038472;28;20257;-85
2023/07/28 10:16:10;;;;;;;4.15;3.08;;;20.90;99.90;;;;;;5038607;28;20210;-85
2023/07/28 10:18:40;;;;;;;3.67;2.70;;;20.90;99.90;;;;;;5038758;28;20237;-85
2023/07/28 10:21:13;;;;;;;3.30;3.00;;;20.80;99.90;;;;;;5038562;28;20192;-84
2023/07/28 10:23:39;;;;;;;3.55;2.90;;;20.80;99.90;;;;;;5038398;28;20169;-86
2023/07/28 10:26:05;;;;;;;3.63;2.60;;;20.70;99.90;;;;;;5031566;28;20296;-86
2023/07/28 10:28:38;;;;;;;3.05;2.58;;;20.80;99.90;;;;;;5015298;28;20178;-85
2023/07/28 10:31:06;;;;;;;4.53;2.50;;;20.90;99.90;;;;;;5016508;28;20490;-85
2023/07/28 10:33:33;;;;;;;3.20;2.50;;;20.90;99.90;;;;;;5015207;28;20187;-85
2023/07/28 10:36:21;;;;;;;4.05;2.72;;;20.90;99.90;;;;;;5015278;28;20217;-85
2023/07/28 10:39:00;;;;;;;2.92;2.58;;;21.10;99.90;;;;;;5014843;28;20322;-85
2023/07/28 10:41:25;;;;;;;3.97;2.20;;;21.40;99.90;;;;;;4998765;28;20229;-84
2023/07/28 10:43:51;;;;;;;8.05;2.92;;;21.60;99.90;;;;;;5016108;28;20207;-85
2023/07/28 10:46:20;;;;;;;4.43;2.10;;;21.80;99.90;;;;;;5015257;28;20171;-86
2023/07/28 10:48:48;;;;;;;4.53;2.30;;;21.80;99.90;;;;;;5014792;28;20240;-84
2023/07/28 10:51:32;;;;;;;5.22;2.17;;;21.70;99.90;;;;;;5014998;28;20525;-85
2023/07/28 10:53:59;;;;;;;3.38;2.05;;;21.60;99.90;;;;;;5014808;28;20180;-85
2023/07/28 10:56:26;;;;;;;3.00;1.90;;;21.60;99.90;;;;;;5016212;28;20286;-85
2023/07/28 10:58:59;;;;;;;4.05;1.90;;;21.70;99.90;;;;;;5014972;28;20298;-85
2023/07/28 11:01:51;;;;;;;4.85;2.10;;;21.90;99.90;;;;;;5015931;28;20266;-85
2023/07/28 11:04:19;;;;;;;2.10;1.90;;;22.20;99.90;;;;;;5014671;28;20191;-84
2023/07/28 11:06:47;;;;;;;3.13;1.95;;;22.30;99.90;;;;;;5014693;28;20179;-85
2023/07/28 11:09:14;;;;;;;2.00;1.75;;;22.30;99.90;;;;;;5014635;28;20175;-86
2023/07/28 11:11:41;;;;;;;1.90;1.80;;;22.30;99.90;;;;;;5015797;28;20191;-85
2023/07/28 11:14:08;;;;;;;1.95;1.67;;;22.10;99.90;;;;;;5015431;28;20194;-87
2023/07/28 11:16:38;;;;;;;2.13;1.90;;;22.10;99.90;;;;;;5015769;28;20288;-85
2023/07/28 11:19:10;;;;;;;2.10;1.75;;;22.20;99.90;;;;;;5015644;28;20511;-85
2023/07/28 11:21:41;;;;;;;4.22;2.03;;;22.20;99.90;;;;;;5015546;28;20621;-85
2023/07/28 11:24:08;;;;;;;5.35;2.00;;;22.30;99.90;;;;;;5014162;28;20622;-85
2023/07/28 11:26:36;;;;;;;1.90;1.80;;;22.30;99.90;;;;;;5030413;28;20680;-85
2023/07/28 11:29:02;;;;;;;3.03;1.80;;;22.30;99.90;;;;;;5054928;28;20240;-86
2023/07/28 11:31:27;;;;;;;6.88;1.98;;;22.20;99.90;;;;;;5054983;28;20578;-86
2023/07/28 11:33:53;;;;;;;2.38;1.90;;;22.30;99.90;;;;;;5037146;28;20612;-85
2023/07/28 11:36:27;;;;;;;7.30;1.95;;;22.20;99.90;;;;;;5037318;28;20206;-86
2023/07/28 11:38:54;;;;;;;9.82;2.10;;;22.20;99.90;;;;;;5054779;28;20228;-85
2023/07/28 11:41:21;;;;;;;9.40;2.30;;;22.30;99.90;;;;;;5037091;28;20189;-85
2023/07/28 11:43:48;;;;;;;2.63;2.20;;;22.30;99.90;;;;;;5054664;28;20390;-86
2023/07/28 11:46:32;;;;;;;2.90;2.20;;;22.30;99.90;;;;;;5055049;28;20166;-86
2023/07/28 11:49:16;;;;;;;2.05;1.85;;;22.50;99.90;;;;;;5037041;28;20174;-84
2023/07/28 11:51:44;;;;;;;9.00;1.83;;;22.70;99.90;;;;;;5036894;28;20217;-86
2023/07/28 11:54:15;;;;;;;3.15;2.00;;;22.90;99.90;;;;;;5036755;28;20523;-84
2023/07/28 11:56:45;;;;;;;2.70;1.92;;;23.10;99.90;;;;;;5036736;28;20206;-85
2023/07/28 11:59:14;;;;;;;1.98;1.73;;;23.10;99.90;;;;;;5036603;28;20178;-86
2023/07/28 12:02:00;;;;;;;8.18;1.75;;;23.10;99.90;;;;;;5036934;28;20204;-87
2023/07/28 12:04:31;;;;;;;5.47;1.65;;;23.00;99.90;;;;;;5054507;28;20166;-85
2023/07/28 12:07:14;;;;;;;1.70;1.60;;;22.70;99.90;;;;;;5036633;28;20239;-84
2023/07/28 12:09:51;;;;;;;5.78;1.95;;;22.50;99.90;;;;;;5054122;28;20185;-85
2023/07/28 12:12:18;;;;;;;4.88;2.10;;;22.50;99.90;;;;;;5036285;28;20185;-85
2023/07/28 12:14:47;;;;;;;3.47;1.85;;;22.90;99.90;;;;;;5036403;28;20185;-86
2023/07/28 12:17:20;;;;;;;1.98;1.17;;;23.30;99.90;;;;;;5054576;28;20205;-85
2023/07/28 12:20:12;;;;;;;3.42;1.40;;;23.40;99.90;;;;;;5054352;28;20597;-86
2023/07/28 12:22:39;;;;;;;5.35;1.20;;;23.20;99.90;;;;;;5054288;28;20170;-84
2023/07/28 12:25:05;;;;;;;2.53;1.40;;;22.90;99.90;;;;;;5054137;28;20181;-86
2023/07/28 12:27:31;;;;;;;11.30;1.65;;;22.60;99.90;;;;;;5053985;28;20359;-86
2023/07/28 12:29:57;;;;;;;3.13;1.42;;;22.40;99.90;;;;;;5036054;28;20265;-88
2023/07/28 12:32:23;;;;;;;23.05;1.90;;;22.40;99.90;;;;;;5036312;28;20177;-86
2023/07/28 12:34:49;;;;;;;10.02;1.98;;;22.40;99.90;;;;;;5036209;28;20177;-85
2023/07/28 12:37:15;;;;;;;7.22;1.55;;;22.50;99.90;;;;;;5035664;28;20227;-86
2023/07/28 12:39:41;;;;;;;9.23;2.00;;;22.50;99.90;;;;;;5036020;28;20185;-85
2023/07/28 12:42:08;;;;;;;3.85;1.48;;;22.50;99.90;;;;;;5054019;28;20613;-85
2023/07/28 12:44:35;;;;;;;3.45;1.50;;;22.50;99.90;;;;;;5035880;28;20173;-86
2023/07/28 12:47:02;;;;;;;4.07;1.50;;;22.80;99.90;;;;;;5036583;28;20255;-86